createdAt,value
2019-05-23T00:01:23.664Z,8.90
2019-05-23T00:03:59.281Z,10.17
2019-05-23T00:06:28.853Z,10.90
2019-05-23T00:08:58.708Z,8.40
2019-05-23T00:11:40.012Z,10.17
2019-05-23T00:14:21.592Z,9.27
2019-05-23T00:16:52.649Z,9.70
2019-05-23T00:19:21.854Z,10.20
2019-05-23T00:21:51.443Z,8.77
2019-05-23T00:24:20.112Z,11.27
2019-05-23T00:26:48.804Z,7.90
2019-05-23T00:29:17.691Z,7.10
2019-05-23T00:31:47.857Z,9.13
2019-05-23T00:34:16.633Z,9.43
2019-05-23T00:36:46.257Z,9.20
2019-05-23T00:39:16.314Z,8.53
2019-05-23T00:41:45.316Z,9.10
2019-05-23T00:44:13.812Z,8.13
2019-05-23T00:46:43.651Z,9.27
2019-05-23T00:49:14.047Z,8.10
2019-05-23T00:51:44.299Z,9.27
2019-05-23T00:54:14.653Z,8.17
2019-05-23T00:56:43.154Z,7.10
2019-05-23T00:59:25.858Z,8.83
2019-05-23T01:01:42.960Z,10.43
2019-05-23T01:04:13.223Z,12.13
2019-05-23T01:06:42.488Z,8.33
2019-05-23T01:09:11.861Z,9.17
2019-05-23T01:11:40.415Z,7.77
2019-05-23T01:14:09.396Z,8.13
2019-05-23T01:16:38.878Z,8.07
2019-05-23T01:19:09.008Z,8.67
2019-05-23T01:21:42.335Z,7.93
2019-05-23T01:24:15.769Z,9.93
2019-05-23T01:26:45.025Z,8.47
2019-05-23T01:29:14.088Z,8.10
2019-05-23T01:31:44.360Z,8.57
2019-05-23T01:34:14.571Z,9.03
2019-05-23T01:36:43.676Z,6.87
2019-05-23T01:39:12.647Z,6.37
2019-05-23T01:41:42.489Z,7.57
2019-05-23T01:44:11.668Z,7.40
2019-05-23T01:46:41.646Z,7.73
2019-05-23T01:49:32.096Z,9.40
2019-05-23T01:52:01.204Z,7.97
2019-05-23T01:54:29.732Z,9.83
2019-05-23T01:56:58.345Z,9.87
2019-05-23T01:59:27.223Z,9.53
2019-05-23T02:01:56.122Z,8.20
2019-05-23T02:04:24.577Z,9.47
2019-05-23T02:06:53.124Z,9.50
2019-05-23T02:09:22.259Z,8.23
2019-05-23T02:11:51.541Z,8.80
2019-05-23T02:14:21.290Z,8.50
2019-05-23T02:16:50.510Z,7.87
2019-05-23T02:19:20.100Z,8.60
2019-05-23T02:21:49.009Z,9.43
2019-05-23T02:24:18.514Z,8.97
2019-05-23T02:26:47.939Z,10.10
2019-05-23T02:29:17.307Z,8.63
2019-05-23T02:31:46.019Z,8.67
2019-05-23T02:34:17.701Z,8.57
2019-05-23T02:36:47.804Z,7.70
2019-05-23T02:39:34.233Z,7.97
2019-05-23T02:42:04.709Z,6.80
2019-05-23T02:44:33.226Z,9.73
2019-05-23T02:47:20.349Z,8.90
2019-05-23T02:49:50.921Z,9.40
2019-05-23T02:52:39.368Z,9.80
2019-05-23T02:55:13.497Z,7.30
2019-05-23T02:57:43.031Z,8.00
2019-05-23T03:00:54.784Z,7.93
2019-05-23T03:03:26.726Z,9.53
2019-05-23T03:05:56.737Z,7.83
2019-05-23T03:08:25.336Z,8.70
2019-05-23T03:11:19.891Z,7.97
2019-05-23T03:13:49.956Z,9.87
2019-05-23T03:16:24.238Z,8.90
2019-05-23T03:18:55.919Z,8.93
2019-05-23T03:21:25.751Z,8.17
2019-05-23T03:23:55.959Z,9.13
2019-05-23T03:26:52.325Z,8.17
2019-05-23T03:29:21.618Z,7.57
2019-05-23T03:31:57.530Z,8.17
2019-05-23T03:34:27.806Z,8.80
2019-05-23T03:36:56.910Z,9.77
2019-05-23T03:39:26.003Z,9.77
2019-05-23T03:41:54.518Z,10.23
2019-05-23T03:44:23.374Z,11.00
2019-05-23T03:46:53.352Z,7.33
2019-05-23T03:49:22.338Z,9.27
2019-05-23T03:51:51.439Z,8.87
2019-05-23T03:54:20.889Z,11.27
2019-05-23T03:56:49.666Z,9.53
2019-05-23T03:59:18.503Z,9.63
2019-05-23T04:01:49.346Z,8.87
2019-05-23T04:04:18.060Z,8.03
2019-05-23T04:06:47.789Z,8.50
2019-05-23T04:09:16.746Z,7.93
2019-05-23T04:11:45.270Z,10.00
2019-05-23T04:14:13.833Z,8.37
2019-05-23T04:16:42.782Z,9.00
2019-05-23T04:19:11.833Z,11.67
2019-05-23T04:21:40.463Z,8.90
2019-05-23T04:24:08.926Z,9.53
2019-05-23T04:26:37.385Z,11.87
2019-05-23T04:29:06.083Z,10.23
2019-05-23T04:31:34.921Z,12.73
2019-05-23T04:34:03.920Z,9.83
2019-05-23T04:36:33.045Z,10.63
2019-05-23T04:39:01.561Z,11.43
2019-05-23T04:41:30.272Z,11.33
2019-05-23T04:43:58.885Z,12.20
2019-05-23T04:46:27.494Z,12.00
2019-05-23T04:48:55.997Z,12.30
2019-05-23T04:51:24.644Z,12.07
2019-05-23T04:53:54.008Z,12.43
2019-05-23T04:56:22.729Z,13.57
2019-05-23T04:58:52.299Z,14.23
2019-05-23T05:01:22.509Z,12.10
2019-05-23T05:03:52.112Z,11.07
2019-05-23T05:06:21.056Z,13.23
2019-05-23T05:08:51.428Z,13.43
2019-05-23T05:11:21.751Z,12.60
2019-05-23T05:13:50.601Z,12.50
2019-05-23T05:16:19.812Z,13.30
2019-05-23T05:18:48.376Z,11.43
2019-05-23T05:21:16.956Z,15.13
2019-05-23T05:23:45.660Z,15.50
2019-05-23T05:26:17.204Z,10.73
2019-05-23T05:28:46.244Z,13.70
2019-05-23T05:31:14.728Z,13.13
2019-05-23T05:33:43.265Z,16.80
2019-05-23T05:36:13.400Z,14.47
2019-05-23T05:38:42.543Z,13.93
2019-05-23T05:41:12.388Z,11.57
2019-05-23T05:43:42.052Z,15.37
2019-05-23T05:46:11.206Z,13.70
2019-05-23T05:48:40.813Z,13.23
2019-05-23T05:51:09.269Z,14.57
2019-05-23T05:53:38.093Z,13.93
2019-05-23T05:56:06.615Z,15.50
2019-05-23T05:58:35.164Z,14.13
2019-05-23T06:01:05.964Z,16.03
2019-05-23T06:03:34.674Z,11.90
2019-05-23T06:06:09.163Z,13.63
2019-05-23T06:08:39.785Z,13.43
2019-05-23T06:11:08.730Z,15.13
2019-05-23T06:13:37.270Z,17.03
2019-05-23T06:16:06.224Z,17.03
2019-05-23T06:18:35.322Z,15.73
2019-05-23T06:21:07.881Z,17.60
2019-05-23T06:23:36.369Z,19.57
2019-05-23T06:26:04.989Z,16.77
2019-05-23T06:28:33.605Z,18.37
2019-05-23T06:31:02.492Z,16.93
2019-05-23T06:33:31.833Z,19.50
2019-05-23T06:36:01.316Z,17.80
2019-05-23T06:38:30.055Z,18.77
2019-05-23T06:40:59.103Z,18.87
2019-05-23T06:43:27.828Z,23.47
2019-05-23T06:45:56.509Z,20.93
2019-05-23T06:48:25.350Z,20.70
2019-05-23T06:50:53.941Z,18.83
2019-05-23T06:53:22.482Z,18.57
2019-05-23T06:55:51.046Z,21.20
2019-05-23T06:58:19.975Z,19.33
2019-05-23T07:00:49.441Z,19.10
2019-05-23T07:03:18.547Z,17.13
2019-05-23T07:05:47.138Z,16.80
2019-05-23T07:08:15.652Z,19.73
2019-05-23T07:10:44.964Z,18.80
2019-05-23T07:13:13.915Z,17.40
2019-05-23T07:15:43.507Z,19.50
2019-05-23T07:18:12.545Z,17.60
2019-05-23T07:20:41.152Z,18.20
2019-05-23T07:23:12.311Z,16.13
2019-05-23T07:25:41.169Z,14.07
2019-05-23T07:28:09.765Z,12.57
2019-05-23T07:30:38.362Z,12.13
2019-05-23T07:33:09.270Z,12.70
2019-05-23T07:35:37.785Z,11.90
2019-05-23T07:38:06.610Z,9.50
2019-05-23T07:40:35.388Z,10.50
2019-05-23T07:43:06.313Z,10.73
2019-05-23T07:45:40.072Z,9.10
2019-05-23T07:48:08.707Z,11.43
2019-05-23T07:50:37.312Z,8.17
2019-05-23T07:53:07.688Z,8.97
2019-05-23T07:55:37.776Z,9.47
2019-05-23T07:58:06.468Z,10.17
2019-05-23T08:00:37.177Z,11.40
2019-05-23T08:03:07.416Z,14.83
2019-05-23T08:05:36.307Z,10.07
2019-05-23T08:08:06.767Z,10.53
2019-05-23T08:10:35.385Z,10.97
2019-05-23T08:13:04.154Z,8.80
2019-05-23T08:15:32.638Z,10.53
2019-05-23T08:18:01.843Z,9.67
2019-05-23T08:20:30.356Z,9.73
2019-05-23T08:22:58.939Z,10.93
2019-05-23T08:25:27.462Z,11.57
2019-05-23T08:27:56.001Z,9.70
2019-05-23T08:30:24.601Z,10.90
2019-05-23T08:32:53.182Z,7.43
2019-05-23T08:35:21.892Z,7.97
2019-05-23T08:37:50.397Z,9.73
2019-05-23T08:40:20.003Z,8.70
2019-05-23T08:42:48.775Z,7.30
2019-05-23T08:45:18.944Z,7.60
2019-05-23T08:47:47.477Z,9.47
2019-05-23T08:50:16.927Z,7.23
2019-05-23T08:52:45.464Z,8.77
2019-05-23T08:55:22.423Z,8.97
2019-05-23T08:57:52.074Z,6.90
2019-05-23T09:00:22.679Z,7.47
2019-05-23T09:02:51.533Z,8.57
2019-05-23T09:05:21.507Z,6.30
2019-05-23T09:07:50.591Z,8.53
2019-05-23T09:10:20.225Z,7.70
2019-05-23T09:12:49.400Z,8.67
2019-05-23T09:15:18.473Z,7.10
2019-05-23T09:17:52.795Z,9.17
2019-05-23T09:20:18.346Z,6.53
2019-05-23T09:22:46.833Z,7.10
2019-05-23T09:25:16.096Z,6.37
2019-05-23T09:27:45.486Z,6.83
2019-05-23T09:30:14.584Z,6.33
2019-05-23T09:32:43.196Z,7.73
2019-05-23T09:35:20.859Z,5.73
2019-05-23T09:37:42.947Z,6.17
2019-05-23T09:40:11.567Z,6.30
2019-05-23T09:42:40.105Z,8.17
2019-05-23T09:45:09.400Z,7.07
2019-05-23T09:47:37.935Z,6.57
2019-05-23T09:50:10.328Z,8.00
2019-05-23T09:52:38.992Z,6.07
2019-05-23T09:55:08.348Z,8.83
2019-05-23T09:57:37.047Z,6.20
2019-05-23T10:00:08.205Z,6.77
2019-05-23T10:02:36.744Z,5.63
2019-05-23T10:05:08.444Z,6.10
2019-05-23T10:07:36.900Z,7.63
2019-05-23T10:10:07.274Z,6.50
2019-05-23T10:12:35.908Z,6.57
2019-05-23T10:15:11.839Z,6.07
2019-05-23T10:17:40.378Z,5.13
2019-05-23T10:20:09.243Z,5.53
2019-05-23T10:22:37.683Z,4.40
2019-05-23T10:25:07.394Z,4.53
2019-05-23T10:27:36.302Z,6.33
2019-05-23T10:30:10.491Z,5.20
2019-05-23T10:32:39.165Z,7.13
2019-05-23T10:35:08.232Z,5.13
2019-05-23T10:37:36.828Z,5.53
2019-05-23T10:40:07.266Z,4.60
2019-05-23T10:42:37.793Z,4.67
2019-05-23T10:45:07.479Z,6.10
2019-05-23T10:47:36.028Z,5.07
2019-05-23T10:50:08.969Z,5.30
2019-05-23T10:52:37.235Z,4.83
2019-05-23T10:55:06.451Z,6.17
2019-05-23T10:57:35.027Z,6.53
2019-05-23T11:00:05.110Z,7.07
2019-05-23T11:02:35.304Z,4.63
2019-05-23T11:05:12.960Z,6.97
2019-05-23T11:07:37.317Z,4.00
2019-05-23T11:10:07.743Z,4.20
2019-05-23T11:12:36.337Z,3.43
2019-05-23T11:15:06.469Z,3.50
2019-05-23T11:17:35.428Z,4.50
2019-05-23T11:20:09.840Z,3.93
2019-05-23T11:22:38.349Z,5.63
2019-05-23T11:25:10.198Z,4.50
2019-05-23T11:27:38.787Z,4.77
2019-05-23T11:30:10.934Z,4.00
2019-05-23T11:32:39.366Z,5.73
2019-05-23T11:35:08.079Z,4.97
2019-05-23T11:37:36.604Z,5.07
2019-05-23T11:40:07.163Z,4.30
2019-05-23T11:42:36.034Z,3.83
2019-05-23T11:45:06.465Z,3.93
2019-05-23T11:47:35.265Z,4.73
2019-05-23T11:50:07.590Z,5.27
2019-05-23T11:52:36.312Z,4.17
2019-05-23T11:55:06.847Z,5.47
2019-05-23T11:57:37.906Z,4.83
2019-05-23T12:00:09.080Z,6.37
2019-05-23T12:02:39.794Z,4.20
2019-05-23T12:05:10.005Z,5.13
2019-05-23T12:07:38.804Z,4.67
2019-05-23T12:10:08.148Z,5.60
2019-05-23T12:12:36.677Z,6.67
2019-05-23T12:15:09.872Z,3.97
2019-05-23T12:17:38.585Z,4.87
2019-05-23T12:20:08.392Z,6.73
2019-05-23T12:22:37.073Z,4.80
2019-05-23T12:25:20.708Z,4.17
2019-05-23T12:27:39.572Z,4.33
2019-05-23T12:30:11.585Z,4.13
2019-05-23T12:32:40.040Z,5.57
2019-05-23T12:35:11.447Z,3.47
2019-05-23T12:37:38.985Z,5.60
2019-05-23T12:40:10.217Z,4.90
2019-05-23T12:42:38.786Z,4.93
2019-05-23T12:45:09.920Z,6.07
2019-05-23T12:47:52.338Z,5.53
2019-05-23T12:50:22.956Z,4.37
2019-05-23T12:52:51.627Z,4.17
2019-05-23T12:55:20.298Z,5.07
2019-05-23T12:57:48.726Z,4.77
2019-05-23T13:00:22.411Z,4.73
2019-05-23T13:02:50.990Z,4.70
2019-05-23T13:05:20.228Z,5.10
2019-05-23T13:07:50.188Z,4.10
2019-05-23T13:10:23.813Z,7.03
2019-05-23T13:12:49.339Z,4.47
2019-05-23T13:15:17.931Z,5.30
2019-05-23T13:17:46.449Z,5.33
2019-05-23T13:20:15.612Z,3.50
2019-05-23T13:22:44.077Z,4.20
2019-05-23T13:25:12.739Z,3.30
2019-05-23T13:28:00.704Z,5.23
2019-05-23T13:30:29.204Z,7.07
2019-05-23T13:32:57.809Z,5.80
2019-05-23T13:35:26.910Z,3.80
2019-05-23T13:37:55.489Z,4.13
2019-05-23T13:40:24.188Z,4.37
2019-05-23T13:42:52.731Z,4.20
2019-05-23T13:45:21.391Z,5.40
2019-05-23T13:47:49.908Z,3.90
2019-05-23T13:50:19.050Z,4.17
2019-05-23T13:52:48.322Z,6.33
2019-05-23T13:55:17.202Z,4.23
2019-05-23T13:57:46.779Z,3.27
2019-05-23T14:00:16.440Z,4.50
2019-05-23T14:02:44.938Z,4.27
2019-05-23T14:05:18.763Z,5.33
2019-05-23T14:07:44.823Z,6.53
2019-05-23T14:10:13.952Z,4.43
2019-05-23T14:12:42.879Z,3.37
2019-05-23T14:15:13.289Z,4.37
2019-05-23T14:17:45.276Z,7.17
2019-05-23T14:20:14.849Z,4.30
2019-05-23T14:22:51.691Z,5.27
2019-05-23T14:25:20.405Z,4.60
2019-05-23T14:27:50.613Z,4.50
2019-05-23T14:30:38.816Z,3.60
2019-05-23T14:33:26.681Z,4.03
2019-05-23T14:36:03.054Z,4.13
2019-05-23T14:38:33.191Z,3.70
2019-05-23T14:41:02.037Z,3.37
2019-05-23T14:43:30.646Z,4.47
2019-05-23T14:46:03.593Z,4.97
2019-05-23T14:48:52.034Z,3.17
2019-05-23T14:51:28.064Z,3.40
2019-05-23T14:54:16.294Z,7.40
2019-05-23T14:56:45.194Z,3.77
2019-05-23T14:59:13.725Z,3.70
2019-05-23T15:01:42.308Z,4.03
2019-05-23T15:04:10.842Z,3.37
2019-05-23T15:06:39.395Z,3.30
2019-05-23T15:09:09.687Z,3.90
2019-05-23T15:11:39.239Z,3.73
2019-05-23T15:14:08.019Z,3.73
2019-05-23T15:16:36.749Z,4.13
2019-05-23T15:19:05.865Z,3.40
2019-05-23T15:21:34.471Z,3.67
2019-05-23T15:24:03.136Z,4.70
2019-05-23T15:26:31.661Z,3.50
2019-05-23T15:29:00.118Z,5.97
2019-05-23T15:31:28.713Z,3.40
2019-05-23T15:33:57.353Z,4.20
2019-05-23T15:36:26.152Z,4.53
2019-05-23T15:39:08.705Z,2.80
2019-05-23T15:41:25.023Z,4.23
2019-05-23T15:43:53.578Z,3.40
2019-05-23T15:46:22.092Z,5.17
2019-05-23T15:48:50.673Z,4.73
2019-05-23T15:51:20.840Z,4.30
2019-05-23T15:53:56.918Z,4.33
2019-05-23T15:56:33.146Z,5.40
2019-05-23T15:59:03.619Z,3.80
2019-05-23T16:01:42.497Z,5.17
2019-05-23T16:04:12.679Z,5.33
2019-05-23T16:06:41.149Z,4.13
2019-05-23T16:09:27.465Z,2.83
2019-05-23T16:11:45.794Z,5.07
2019-05-23T16:14:14.579Z,3.90
2019-05-23T16:16:43.279Z,3.97
2019-05-23T16:38:24.364Z,3.93
2019-05-23T16:41:00.512Z,3.33
2019-05-23T16:43:42.534Z,5.57
2019-05-23T16:46:06.288Z,4.53
2019-05-23T16:54:55.479Z,3.93
2019-05-23T17:00:30.805Z,4.47
2019-05-23T17:06:16.435Z,3.47
2019-05-23T17:09:13.844Z,3.50
2019-05-23T17:14:59.002Z,3.30
2019-05-23T17:30:08.206Z,6.07
2019-05-23T17:33:37.175Z,3.40
2019-05-23T17:35:52.136Z,4.73
2019-05-23T17:38:20.992Z,3.80
2019-05-23T17:40:49.531Z,3.67
2019-05-23T17:43:18.049Z,4.07
2019-05-23T17:45:46.601Z,3.90
2019-05-23T17:48:15.222Z,3.90
2019-05-23T17:50:43.676Z,5.17
2019-05-23T17:53:12.235Z,5.67
2019-05-23T18:05:23.544Z,4.20
2019-05-23T18:11:10.829Z,5.53
2019-05-23T18:14:02.010Z,4.17
2019-05-23T18:16:47.397Z,7.10
2019-05-23T18:23:21.205Z,4.53
2019-05-23T18:26:30.451Z,4.67
2019-05-23T18:28:51.252Z,4.40
2019-05-23T18:34:44.048Z,4.10
2019-05-23T18:47:17.123Z,4.23
2019-05-23T18:52:55.500Z,4.83
2019-05-23T19:01:48.501Z,4.60
2019-05-23T19:04:17.151Z,6.00
2019-05-23T19:06:46.108Z,4.00
2019-05-23T19:09:16.153Z,4.23
2019-05-23T19:11:45.694Z,4.47
2019-05-23T19:14:14.217Z,4.57
2019-05-23T19:16:43.305Z,4.10
2019-05-23T19:19:12.067Z,4.17
2019-05-23T19:21:40.657Z,4.23
2019-05-23T19:24:09.237Z,4.37
2019-05-23T19:26:38.516Z,4.77
2019-05-23T19:29:08.202Z,4.40
2019-05-23T19:31:37.900Z,4.37
2019-05-23T19:34:06.909Z,4.57
2019-05-23T19:36:35.608Z,3.93
2019-05-23T19:39:06.292Z,6.10
2019-05-23T19:41:37.937Z,6.80
2019-05-23T19:50:45.332Z,3.70
2019-05-23T19:57:00.436Z,3.60
2019-05-23T20:03:09.696Z,3.90
2019-05-23T20:09:09.631Z,4.07
2019-05-23T20:11:57.277Z,8.27
2019-05-23T20:17:31.576Z,6.23
2019-05-23T20:20:40.097Z,5.07
2019-05-23T20:23:21.141Z,5.13
2019-05-23T20:29:34.151Z,5.47
2019-05-23T20:34:26.446Z,4.83
2019-05-23T20:37:11.149Z,9.53
2019-05-23T20:46:18.751Z,4.20
2019-05-23T20:49:11.335Z,3.63
2019-05-23T20:52:02.908Z,4.03
2019-05-23T20:54:47.306Z,3.60
2019-05-23T21:00:32.941Z,4.50
2019-05-23T21:03:18.138Z,4.47
2019-05-23T21:06:31.177Z,4.57
2019-05-23T21:09:15.763Z,3.30
2019-05-23T21:12:41.040Z,4.40
2019-05-23T21:15:24.747Z,5.60
2019-05-23T21:21:23.261Z,5.90
2019-05-23T21:24:07.127Z,4.70
2019-05-23T21:26:51.659Z,3.23
2019-05-23T21:32:10.700Z,5.77
2019-05-23T21:34:46.886Z,5.27
2019-05-23T21:37:21.397Z,5.27
2019-05-23T21:39:49.889Z,4.83
2019-05-23T21:42:18.413Z,3.93
2019-05-23T21:44:46.973Z,5.00
2019-05-23T21:47:15.524Z,3.77
2019-05-23T21:49:43.987Z,3.43
2019-05-23T21:52:13.030Z,3.50
2019-05-23T21:54:41.529Z,3.80
2019-05-23T21:57:10.208Z,3.57
2019-05-23T21:59:38.869Z,3.60
2019-05-23T22:02:11.908Z,3.60
2019-05-23T22:04:45.043Z,3.60
2019-05-23T22:07:13.688Z,3.43
2019-05-23T22:09:42.320Z,4.07
2019-05-23T22:12:12.416Z,3.47
2019-05-23T22:14:41.393Z,3.70
2019-05-23T22:17:09.911Z,3.50
2019-05-23T22:19:38.584Z,3.80
2019-05-23T22:22:07.206Z,4.43
2019-05-23T22:24:35.823Z,3.43
2019-05-23T22:27:06.291Z,3.50
2019-05-23T22:29:34.932Z,3.73
2019-05-23T22:32:03.671Z,4.00
2019-05-23T22:34:33.969Z,3.60
2019-05-23T22:37:03.683Z,3.57
2019-05-23T22:39:32.268Z,5.30
2019-05-23T22:42:00.781Z,3.70
2019-05-23T22:44:29.331Z,4.00
2019-05-23T22:46:58.060Z,4.07
2019-05-23T22:49:27.414Z,3.83
2019-05-23T22:51:55.878Z,6.23
2019-05-23T22:54:24.338Z,4.17
2019-05-23T22:56:53.840Z,3.60
2019-05-23T22:59:22.408Z,3.83
2019-05-23T23:01:51.043Z,3.37
2019-05-23T23:04:19.689Z,3.37
2019-05-23T23:06:48.285Z,5.33
2019-05-23T23:09:17.029Z,3.50
2019-05-23T23:11:45.618Z,3.13
2019-05-23T23:14:14.159Z,3.10
2019-05-23T23:16:42.694Z,3.50
2019-05-23T23:19:11.381Z,4.67
2019-05-23T23:21:40.051Z,3.40
2019-05-23T23:24:08.749Z,3.50
2019-05-23T23:26:37.574Z,3.43
2019-05-23T23:29:06.596Z,5.27
2019-05-23T23:31:35.218Z,3.40
2019-05-23T23:34:03.848Z,3.03
2019-05-23T23:36:32.323Z,3.83
2019-05-23T23:39:00.837Z,3.60
2019-05-23T23:41:29.387Z,3.60
2019-05-23T23:43:59.990Z,4.10
2019-05-23T23:46:46.220Z,3.70
2019-05-23T23:49:32.635Z,3.73
2019-05-23T23:52:19.187Z,3.17
2019-05-23T23:55:05.649Z,2.87
2019-05-23T23:57:52.070Z,5.00
